sensor_id;sensor_type;location;lat;lon;timestamp;temperature;humidity
22940;DHT22;11636;52.086;5.090;2024-02-16T00:00:02;11.30;99.90
22940;DHT22;11636;52.086;5.090;2024-02-16T00:02:40;11.30;99.90
22940;DHT22;11636;52.086;5.090;2024-02-16T00:05:09;11.30;99.90
22940;DHT22;11636;52.086;5.090;2024-02-16T00:07:45;11.30;99.90
22940;DHT22;11636;52.086;5.090;2024-02-16T00:10:11;11.30;99.90
22940;DHT22;11636;52.086;5.090;2024-02-16T00:12:48;11.30;99.90
22940;DHT22;11636;52.086;5.090;2024-02-16T00:15:21;11.30;99.90
22940;DHT22;11636;52.086;5.090;2024-02-16T00:17:48;11.30;99.90
22940;DHT22;11636;52.086;5.090;2024-02-16T00:20:22;11.30;99.90
22940;DHT22;11636;52.086;5.090;2024-02-16T00:22:50;11.30;99.90
22940;DHT22;11636;52.086;5.090;2024-02-16T00:25:24;11.30;99.90
22940;DHT22;11636;52.086;5.090;2024-02-16T00:27:50;11.30;99.90
22940;DHT22;11636;52.086;5.090;2024-02-16T00:30:26;11.20;99.90
22940;DHT22;11636;52.086;5.090;2024-02-16T00:33:01;11.30;99.90
22940;DHT22;11636;52.086;5.090;2024-02-16T00:35:35;11.20;99.90
22940;DHT22;11636;52.086;5.090;2024-02-16T00:38:02;11.20;99.90
22940;DHT22;11636;52.086;5.090;2024-02-16T00:40:35;11.20;99.90
22940;DHT22;11636;52.086;5.090;2024-02-16T00:43:08;11.20;99.90
22940;DHT22;11636;52.086;5.090;2024-02-16T00:45:34;11.10;99.90
22940;DHT22;11636;52.086;5.090;2024-02-16T00:48:08;11.10;99.90
22940;DHT22;11636;52.086;5.090;2024-02-16T00:50:41;11.10;99.90
22940;DHT22;11636;52.086;5.090;2024-02-16T00:53:10;11.10;99.90
22940;DHT22;11636;52.086;5.090;2024-02-16T00:55:37;11.00;99.90
22940;DHT22;11636;52.086;5.090;2024-02-16T00:58:11;11.00;99.90
22940;DHT22;11636;52.086;5.090;2024-02-16T01:00:37;11.00;99.90
22940;DHT22;11636;52.086;5.090;2024-02-16T01:03:11;11.00;99.90
22940;DHT22;11636;52.086;5.090;2024-02-16T01:05:39;11.10;99.90
22940;DHT22;11636;52.086;5.090;2024-02-16T01:08:09;11.10;99.90
22940;DHT22;11636;52.086;5.090;2024-02-16T01:10:43;11.20;99.90
22940;DHT22;11636;52.086;5.090;2024-02-16T01:13:09;11.20;99.90
22940;DHT22;11636;52.086;5.090;2024-02-16T01:15:44;11.30;99.90
22940;DHT22;11636;52.086;5.090;2024-02-16T01:18:10;11.30;99.90
22940;DHT22;11636;52.086;5.090;2024-02-16T01:20:45;11.30;99.90
22940;DHT22;11636;52.086;5.090;2024-02-16T01:23:12;11.30;99.90
22940;DHT22;11636;52.086;5.090;2024-02-16T01:25:45;11.30;99.90
22940;DHT22;11636;52.086;5.090;2024-02-16T01:28:13;11.30;99.90
22940;DHT22;11636;52.086;5.090;2024-02-16T01:30:40;11.20;99.90
22940;DHT22;11636;52.086;5.090;2024-02-16T01:33:14;11.20;99.90
22940;DHT22;11636;52.086;5.090;2024-02-16T01:35:48;11.10;99.90
22940;DHT22;11636;52.086;5.090;2024-02-16T01:38:15;11.10;99.90
22940;DHT22;11636;52.086;5.090;2024-02-16T01:40:41;11.00;99.90
22940;DHT22;11636;52.086;5.090;2024-02-16T01:43:19;11.00;99.90
22940;DHT22;11636;52.086;5.090;2024-02-16T01:45:46;11.00;99.90
22940;DHT22;11636;52.086;5.090;2024-02-16T01:48:27;11.00;99.90
22940;DHT22;11636;52.086;5.090;2024-02-16T01:50:55;11.10;99.90
22940;DHT22;11636;52.086;5.090;2024-02-16T01:53:22;11.10;99.90
22940;DHT22;11636;52.086;5.090;2024-02-16T01:55:56;11.10;99.90
22940;DHT22;11636;52.086;5.090;2024-02-16T01:58:23;11.20;99.90
22940;DHT22;11636;52.086;5.090;2024-02-16T02:00:50;11.20;99.90
22940;DHT22;11636;52.086;5.090;2024-02-16T02:03:23;11.30;99.90
22940;DHT22;11636;52.086;5.090;2024-02-16T02:05:50;11.30;99.90
22940;DHT22;11636;52.086;5.090;2024-02-16T02:08:18;11.30;99.90
22940;DHT22;11636;52.086;5.090;2024-02-16T02:10:51;11.30;99.90
22940;DHT22;11636;52.086;5.090;2024-02-16T02:13:18;11.30;99.90
22940;DHT22;11636;52.086;5.090;2024-02-16T02:15:53;11.20;99.90
22940;DHT22;11636;52.086;5.090;2024-02-16T02:18:21;11.10;99.90
22940;DHT22;11636;52.086;5.090;2024-02-16T02:20:54;11.00;99.90
22940;DHT22;11636;52.086;5.090;2024-02-16T02:23:21;10.90;99.90
22940;DHT22;11636;52.086;5.090;2024-02-16T02:25:55;10.90;99.90
22940;DHT22;11636;52.086;5.090;2024-02-16T02:28:22;10.80;99.90
22940;DHT22;11636;52.086;5.090;2024-02-16T02:30:57;10.90;99.90
22940;DHT22;11636;52.086;5.090;2024-02-16T02:33:24;10.90;99.90
22940;DHT22;11636;52.086;5.090;2024-02-16T02:35:51;10.90;99.90
22940;DHT22;11636;52.086;5.090;2024-02-16T02:38:25;10.90;99.90
22940;DHT22;11636;52.086;5.090;2024-02-16T02:40:52;10.90;99.90
22940;DHT22;11636;52.086;5.090;2024-02-16T02:43:19;10.90;99.90
22940;DHT22;11636;52.086;5.090;2024-02-16T02:45:55;10.80;99.90
22940;DHT22;11636;52.086;5.090;2024-02-16T02:48:22;10.80;99.90
22940;DHT22;11636;52.086;5.090;2024-02-16T02:50:49;10.80;99.90
22940;DHT22;11636;52.086;5.090;2024-02-16T02:53:22;10.80;99.90
22940;DHT22;11636;52.086;5.090;2024-02-16T02:55:55;10.80;99.90
22940;DHT22;11636;52.086;5.090;2024-02-16T02:58:22;10.80;99.90
22940;DHT22;11636;52.086;5.090;2024-02-16T03:00:48;10.80;99.90
22940;DHT22;11636;52.086;5.090;2024-02-16T03:03:22;10.70;99.90
22940;DHT22;11636;52.086;5.090;2024-02-16T03:05:50;10.70;99.90
22940;DHT22;11636;52.086;5.090;2024-02-16T03:08:17;10.70;99.90
22940;DHT22;11636;52.086;5.090;2024-02-16T03:10:50;10.70;99.90
22940;DHT22;11636;52.086;5.090;2024-02-16T03:13:17;10.70;99.90
22940;DHT22;11636;52.086;5.090;2024-02-16T03:15:45;10.70;99.90
22940;DHT22;11636;52.086;5.090;2024-02-16T03:18:19;10.70;99.90
22940;DHT22;11636;52.086;5.090;2024-02-16T03:20:53;10.60;99.90
22940;DHT22;11636;52.086;5.090;2024-02-16T03:23:20;10.60;99.90
22940;DHT22;11636;52.086;5.090;2024-02-16T03:25:47;10.60;99.90
22940;DHT22;11636;52.086;5.090;2024-02-16T03:28:20;10.50;99.90
22940;DHT22;11636;52.086;5.090;2024-02-16T03:30:53;10.50;99.90
22940;DHT22;11636;52.086;5.090;2024-02-16T03:33:26;10.50;99.90
22940;DHT22;11636;52.086;5.090;2024-02-16T03:36:00;10.50;99.90
22940;DHT22;11636;52.086;5.090;2024-02-16T03:38:33;10.50;99.90
22940;DHT22;11636;52.086;5.090;2024-02-16T03:41:00;10.40;99.90
22940;DHT22;11636;52.086;5.090;2024-02-16T03:43:27;10.40;99.90
22940;DHT22;11636;52.086;5.090;2024-02-16T03:46:00;10.40;99.90
22940;DHT22;11636;52.086;5.090;2024-02-16T03:48:34;10.40;99.90
22940;DHT22;11636;52.086;5.090;2024-02-16T03:51:08;10.40;99.90
22940;DHT22;11636;52.086;5.090;2024-02-16T03:53:35;10.40;99.90
22940;DHT22;11636;52.086;5.090;2024-02-16T03:56:09;10.40;99.90
22940;DHT22;11636;52.086;5.090;2024-02-16T03:58:36;10.40;99.90
22940;DHT22;11636;52.086;5.090;2024-02-16T04:01:04;10.50;99.90
22940;DHT22;11636;52.086;5.090;2024-02-16T04:03:48;10.50;99.90
22940;DHT22;11636;52.086;5.090;2024-02-16T04:06:35;10.50;99.90
22940;DHT22;11636;52.086;5.090;2024-02-16T04:09:02;10.50;99.90
22940;DHT22;11636;52.086;5.090;2024-02-16T04:11:35;10.50;99.90
22940;DHT22;11636;52.086;5.090;2024-02-16T04:14:08;10.40;99.90
22940;DHT22;11636;52.086;5.090;2024-02-16T04:16:35;10.40;99.90
22940;DHT22;11636;52.086;5.090;2024-02-16T04:19:08;10.40;99.90
22940;DHT22;11636;52.086;5.090;2024-02-16T04:21:35;10.30;99.90
22940;DHT22;11636;52.086;5.090;2024-02-16T04:24:08;10.30;99.90
22940;DHT22;11636;52.086;5.090;2024-02-16T04:26:41;10.30;99.90
22940;DHT22;11636;52.086;5.090;2024-02-16T04:29:08;10.20;99.90
22940;DHT22;11636;52.086;5.090;2024-02-16T04:31:41;10.20;99.90
22940;DHT22;11636;52.086;5.090;2024-02-16T04:34:15;10.20;99.90
22940;DHT22;11636;52.086;5.090;2024-02-16T04:36:43;10.20;99.90
22940;DHT22;11636;52.086;5.090;2024-02-16T04:39:10;10.20;99.90
22940;DHT22;11636;52.086;5.090;2024-02-16T04:41:43;10.20;99.90
22940;DHT22;11636;52.086;5.090;2024-02-16T04:44:16;10.20;99.90
22940;DHT22;11636;52.086;5.090;2024-02-16T04:46:44;10.20;99.90
22940;DHT22;11636;52.086;5.090;2024-02-16T04:49:17;10.20;99.90
22940;DHT22;11636;52.086;5.090;2024-02-16T04:51:44;10.20;99.90
22940;DHT22;11636;52.086;5.090;2024-02-16T04:54:18;10.20;99.90
22940;DHT22;11636;52.086;5.090;2024-02-16T04:56:45;10.20;99.90
22940;DHT22;11636;52.086;5.090;2024-02-16T04:59:19;10.10;99.90
22940;DHT22;11636;52.086;5.090;2024-02-16T05:01:52;10.10;99.90
22940;DHT22;11636;52.086;5.090;2024-02-16T05:04:19;10.10;99.90
22940;DHT22;11636;52.086;5.090;2024-02-16T05:06:52;10.10;99.90
22940;DHT22;11636;52.086;5.090;2024-02-16T05:09:24;10.10;99.90
22940;DHT22;11636;52.086;5.090;2024-02-16T05:11:59;10.10;99.90
22940;DHT22;11636;52.086;5.090;2024-02-16T05:14:26;10.10;99.90
22940;DHT22;11636;52.086;5.090;2024-02-16T05:16:59;10.10;99.90
22940;DHT22;11636;52.086;5.090;2024-02-16T05:19:26;10.10;99.90
22940;DHT22;11636;52.086;5.090;2024-02-16T05:21:53;10.10;99.90
22940;DHT22;11636;52.086;5.090;2024-02-16T05:24:26;10.10;99.90
22940;DHT22;11636;52.086;5.090;2024-02-16T05:26:59;10.10;99.90
22940;DHT22;11636;52.086;5.090;2024-02-16T05:29:32;10.10;99.90
22940;DHT22;11636;52.086;5.090;2024-02-16T05:31:59;10.20;99.90
22940;DHT22;11636;52.086;5.090;2024-02-16T05:34:32;10.20;99.90
22940;DHT22;11636;52.086;5.090;2024-02-16T05:37:05;10.20;99.90
22940;DHT22;11636;52.086;5.090;2024-02-16T05:39:41;10.20;99.90
22940;DHT22;11636;52.086;5.090;2024-02-16T05:42:24;10.30;99.90
22940;DHT22;11636;52.086;5.090;2024-02-16T05:44:57;10.30;99.90
22940;DHT22;11636;52.086;5.090;2024-02-16T05:47:24;10.40;99.90
22940;DHT22;11636;52.086;5.090;2024-02-16T05:49:51;10.40;99.90
22940;DHT22;11636;52.086;5.090;2024-02-16T05:52:24;10.30;99.90
22940;DHT22;11636;52.086;5.090;2024-02-16T05:54:52;10.30;99.90
22940;DHT22;11636;52.086;5.090;2024-02-16T05:57:26;10.30;99.90
22940;DHT22;11636;52.086;5.090;2024-02-16T05:59:53;10.40;99.90
22940;DHT22;11636;52.086;5.090;2024-02-16T06:02:27;10.40;99.90
22940;DHT22;11636;52.086;5.090;2024-02-16T06:04:54;10.50;99.90
22940;DHT22;11636;52.086;5.090;2024-02-16T06:07:20;10.60;99.90
22940;DHT22;11636;52.086;5.090;2024-02-16T06:09:55;10.60;99.90
22940;DHT22;11636;52.086;5.090;2024-02-16T06:12:22;10.70;99.90
22940;DHT22;11636;52.086;5.090;2024-02-16T06:14:55;10.70;99.90
22940;DHT22;11636;52.086;5.090;2024-02-16T06:17:24;10.80;99.90
22940;DHT22;11636;52.086;5.090;2024-02-16T06:19:53;10.80;99.90
22940;DHT22;11636;52.086;5.090;2024-02-16T06:22:29;10.80;99.90
22940;DHT22;11636;52.086;5.090;2024-02-16T06:24:58;10.80;99.90
22940;DHT22;11636;52.086;5.090;2024-02-16T06:27:31;10.80;99.90
22940;DHT22;11636;52.086;5.090;2024-02-16T06:29:59;10.90;99.90
22940;DHT22;11636;52.086;5.090;2024-02-16T06:32:32;10.90;99.90
22940;DHT22;11636;52.086;5.090;2024-02-16T06:35:07;10.90;99.90
22940;DHT22;11636;52.086;5.090;2024-02-16T06:37:35;10.90;99.90
22940;DHT22;11636;52.086;5.090;2024-02-16T06:40:04;10.90;99.90
22940;DHT22;11636;52.086;5.090;2024-02-16T06:42:38;10.90;99.90
22940;DHT22;11636;52.086;5.090;2024-02-16T06:45:05;10.90;99.90
22940;DHT22;11636;52.086;5.090;2024-02-16T06:47:32;10.90;99.90
22940;DHT22;11636;52.086;5.090;2024-02-16T06:50:06;10.90;99.90
22940;DHT22;11636;52.086;5.090;2024-02-16T06:52:33;10.80;99.90
22940;DHT22;11636;52.086;5.090;2024-02-16T06:55:01;10.80;99.90
22940;DHT22;11636;52.086;5.090;2024-02-16T06:57:34;10.80;99.90
22940;DHT22;11636;52.086;5.090;2024-02-16T07:00:08;10.80;99.90
22940;DHT22;11636;52.086;5.090;2024-02-16T07:02:35;10.80;99.90
22940;DHT22;11636;52.086;5.090;2024-02-16T07:05:08;10.80;99.90
22940;DHT22;11636;52.086;5.090;2024-02-16T07:07:35;10.80;99.90
22940;DHT22;11636;52.086;5.090;2024-02-16T07:10:10;10.80;99.90
22940;DHT22;11636;52.086;5.090;2024-02-16T07:12:40;10.80;99.90
22940;DHT22;11636;52.086;5.090;2024-02-16T07:15:13;10.90;99.90
22940;DHT22;11636;52.086;5.090;2024-02-16T07:17:40;10.90;99.90
22940;DHT22;11636;52.086;5.090;2024-02-16T07:20:14;11.00;99.90
22940;DHT22;11636;52.086;5.090;2024-02-16T07:22:42;11.00;99.90
22940;DHT22;11636;52.086;5.090;2024-02-16T07:25:15;11.10;99.90
22940;DHT22;11636;52.086;5.090;2024-02-16T07:27:42;11.20;99.90
22940;DHT22;11636;52.086;5.090;2024-02-16T07:30:15;11.20;99.90
22940;DHT22;11636;52.086;5.090;2024-02-16T07:32:52;11.30;99.90
22940;DHT22;11636;52.086;5.090;2024-02-16T07:35:25;11.30;99.90
22940;DHT22;11636;52.086;5.090;2024-02-16T07:37:52;11.30;99.90
22940;DHT22;11636;52.086;5.090;2024-02-16T07:40:20;11.40;99.90
22940;DHT22;11636;52.086;5.090;2024-02-16T07:42:54;11.40;99.90
22940;DHT22;11636;52.086;5.090;2024-02-16T07:45:21;11.40;99.90
22940;DHT22;11636;52.086;5.090;2024-02-16T07:47:56;11.50;99.90
22940;DHT22;11636;52.086;5.090;2024-02-16T07:50:24;11.50;99.90
22940;DHT22;11636;52.086;5.090;2024-02-16T07:52:57;11.50;99.90
22940;DHT22;11636;52.086;5.090;2024-02-16T07:55:24;11.60;99.90
22940;DHT22;11636;52.086;5.090;2024-02-16T07:57:51;11.60;99.90
22940;DHT22;11636;52.086;5.090;2024-02-16T08:00:25;11.70;99.90
22940;DHT22;11636;52.086;5.090;2024-02-16T08:02:53;11.70;99.90
22940;DHT22;11636;52.086;5.090;2024-02-16T08:05:26;11.70;99.90
22940;DHT22;11636;52.086;5.090;2024-02-16T08:07:54;11.80;99.90
22940;DHT22;11636;52.086;5.090;2024-02-16T08:10:22;11.80;99.90
22940;DHT22;11636;52.086;5.090;2024-02-16T08:12:55;11.90;99.90
22940;DHT22;11636;52.086;5.090;2024-02-16T08:15:22;11.90;99.90
22940;DHT22;11636;52.086;5.090;2024-02-16T08:17:56;11.90;99.90
22940;DHT22;11636;52.086;5.090;2024-02-16T08:20:30;12.00;99.90
22940;DHT22;11636;52.086;5.090;2024-02-16T08:22:56;12.10;99.90
22940;DHT22;11636;52.086;5.090;2024-02-16T08:25:30;12.10;99.90
22940;DHT22;11636;52.086;5.090;2024-02-16T08:27:59;12.10;99.90
22940;DHT22;11636;52.086;5.090;2024-02-16T08:30:27;12.20;99.90
22940;DHT22;11636;52.086;5.090;2024-02-16T08:33:00;12.30;99.90
22940;DHT22;11636;52.086;5.090;2024-02-16T08:35:27;12.30;99.90
22940;DHT22;11636;52.086;5.090;2024-02-16T08:37:56;12.30;99.90
22940;DHT22;11636;52.086;5.090;2024-02-16T08:40:29;12.40;99.90
22940;DHT22;11636;52.086;5.090;2024-02-16T08:43:05;12.40;99.90
22940;DHT22;11636;52.086;5.090;2024-02-16T08:45:34;12.40;99.90
22940;DHT22;11636;52.086;5.090;2024-02-16T08:48:08;12.40;99.90
22940;DHT22;11636;52.086;5.090;2024-02-16T08:50:36;12.40;99.90
22940;DHT22;11636;52.086;5.090;2024-02-16T08:53:09;12.40;99.90
22940;DHT22;11636;52.086;5.090;2024-02-16T08:55:36;12.50;99.90
22940;DHT22;11636;52.086;5.090;2024-02-16T08:58:09;12.50;99.90
22940;DHT22;11636;52.086;5.090;2024-02-16T09:00:36;12.50;99.90
22940;DHT22;11636;52.086;5.090;2024-02-16T09:03:03;12.50;99.90
22940;DHT22;11636;52.086;5.090;2024-02-16T09:05:38;12.50;99.90
22940;DHT22;11636;52.086;5.090;2024-02-16T09:08:05;12.40;99.90
22940;DHT22;11636;52.086;5.090;2024-02-16T09:10:33;12.40;99.90
22940;DHT22;11636;52.086;5.090;2024-02-16T09:13:07;12.30;99.90
22940;DHT22;11636;52.086;5.090;2024-02-16T09:15:41;12.20;99.90
22940;DHT22;11636;52.086;5.090;2024-02-16T09:18:08;12.20;99.90
22940;DHT22;11636;52.086;5.090;2024-02-16T09:20:41;12.10;99.90
22940;DHT22;11636;52.086;5.090;2024-02-16T09:23:15;12.10;99.90
22940;DHT22;11636;52.086;5.090;2024-02-16T09:25:42;12.10;99.90
22940;DHT22;11636;52.086;5.090;2024-02-16T09:28:17;12.10;99.90
22940;DHT22;11636;52.086;5.090;2024-02-16T09:30:55;12.10;99.90
22940;DHT22;11636;52.086;5.090;2024-02-16T09:33:29;12.20;99.90
22940;DHT22;11636;52.086;5.090;2024-02-16T09:35:57;12.20;99.90
22940;DHT22;11636;52.086;5.090;2024-02-16T09:38:30;12.30;99.90
22940;DHT22;11636;52.086;5.090;2024-02-16T09:40:57;12.40;99.90
22940;DHT22;11636;52.086;5.090;2024-02-16T09:43:30;12.40;99.90
22940;DHT22;11636;52.086;5.090;2024-02-16T09:45:58;12.40;99.90
22940;DHT22;11636;52.086;5.090;2024-02-16T09:48:28;12.50;99.90
22940;DHT22;11636;52.086;5.090;2024-02-16T09:51:02;12.50;99.90
22940;DHT22;11636;52.086;5.090;2024-02-16T09:53:30;12.40;99.90
22940;DHT22;11636;52.086;5.090;2024-02-16T09:56:05;12.40;99.90
22940;DHT22;11636;52.086;5.090;2024-02-16T09:58:35;12.40;99.90
22940;DHT22;11636;52.086;5.090;2024-02-16T10:01:20;12.40;99.90
22940;DHT22;11636;52.086;5.090;2024-02-16T10:03:48;12.30;99.90
22940;DHT22;11636;52.086;5.090;2024-02-16T10:06:21;12.30;99.90
22940;DHT22;11636;52.086;5.090;2024-02-16T10:08:54;12.20;99.90
22940;DHT22;11636;52.086;5.090;2024-02-16T10:11:28;12.10;99.90
22940;DHT22;11636;52.086;5.090;2024-02-16T10:14:03;11.90;99.90
22940;DHT22;11636;52.086;5.090;2024-02-16T10:16:36;11.80;99.90
22940;DHT22;11636;52.086;5.090;2024-02-16T10:19:07;11.70;99.90
22940;DHT22;11636;52.086;5.090;2024-02-16T10:21:40;11.60;99.90
22940;DHT22;11636;52.086;5.090;2024-02-16T10:24:13;11.60;99.90
22940;DHT22;11636;52.086;5.090;2024-02-16T10:26:48;11.50;99.90
22940;DHT22;11636;52.086;5.090;2024-02-16T10:29:23;11.50;99.90
22940;DHT22;11636;52.086;5.090;2024-02-16T10:31:51;11.50;99.90
22940;DHT22;11636;52.086;5.090;2024-02-16T10:34:26;11.40;99.90
22940;DHT22;11636;52.086;5.090;2024-02-16T10:36:55;11.40;99.90
22940;DHT22;11636;52.086;5.090;2024-02-16T10:39:29;11.40;99.90
22940;DHT22;11636;52.086;5.090;2024-02-16T10:41:57;11.40;99.90
22940;DHT22;11636;52.086;5.090;2024-02-16T10:44:32;11.40;99.90
22940;DHT22;11636;52.086;5.090;2024-02-16T10:47:00;11.40;99.90
22940;DHT22;11636;52.086;5.090;2024-02-16T10:49:33;11.40;99.90
22940;DHT22;11636;52.086;5.090;2024-02-16T10:52:01;11.40;99.90
22940;DHT22;11636;52.086;5.090;2024-02-16T10:54:38;11.40;99.90
22940;DHT22;11636;52.086;5.090;2024-02-16T10:57:09;11.40;99.90
22940;DHT22;11636;52.086;5.090;2024-02-16T10:59:43;11.40;99.90
22940;DHT22;11636;52.086;5.090;2024-02-16T11:02:17;11.40;99.90
22940;DHT22;11636;52.086;5.090;2024-02-16T11:04:52;11.30;99.90
22940;DHT22;11636;52.086;5.090;2024-02-16T11:07:20;11.40;99.90
22940;DHT22;11636;52.086;5.090;2024-02-16T11:09:47;11.40;99.90
22940;DHT22;11636;52.086;5.090;2024-02-16T11:12:22;11.40;99.90
22940;DHT22;11636;52.086;5.090;2024-02-16T11:14:56;11.40;99.90
22940;DHT22;11636;52.086;5.090;2024-02-16T11:17:23;11.40;99.90
22940;DHT22;11636;52.086;5.090;2024-02-16T11:19:53;11.40;99.90
22940;DHT22;11636;52.086;5.090;2024-02-16T11:22:28;11.40;99.90
22940;DHT22;11636;52.086;5.090;2024-02-16T11:24:55;11.40;99.90
22940;DHT22;11636;52.086;5.090;2024-02-16T11:27:31;11.40;99.90
22940;DHT22;11636;52.086;5.090;2024-02-16T11:30:01;11.50;99.90
22940;DHT22;11636;52.086;5.090;2024-02-16T11:32:35;11.60;99.90
22940;DHT22;11636;52.086;5.090;2024-02-16T11:35:08;11.60;99.90
22940;DHT22;11636;52.086;5.090;2024-02-16T11:37:42;11.70;99.90
22940;DHT22;11636;52.086;5.090;2024-02-16T11:40:12;11.70;99.90
22940;DHT22;11636;52.086;5.090;2024-02-16T11:42:39;11.70;99.90
22940;DHT22;11636;52.086;5.090;2024-02-16T11:45:14;11.70;99.90
22940;DHT22;11636;52.086;5.090;2024-02-16T11:47:42;11.70;99.90
22940;DHT22;11636;52.086;5.090;2024-02-16T11:50:17;11.70;99.90
22940;DHT22;11636;52.086;5.090;2024-02-16T11:52:46;11.60;99.90
22940;DHT22;11636;52.086;5.090;2024-02-16T11:55:20;11.60;99.90
22940;DHT22;11636;52.086;5.090;2024-02-16T11:57:47;11.50;99.90
22940;DHT22;11636;52.086;5.090;2024-02-16T12:00:24;11.50;99.90
22940;DHT22;11636;52.086;5.090;2024-02-16T12:02:59;11.50;99.90
22940;DHT22;11636;52.086;5.090;2024-02-16T12:05:33;11.50;99.90
22940;DHT22;11636;52.086;5.090;2024-02-16T12:08:06;11.50;99.90
22940;DHT22;11636;52.086;5.090;2024-02-16T12:10:44;11.40;99.90
22940;DHT22;11636;52.086;5.090;2024-02-16T12:13:11;11.30;99.90
22940;DHT22;11636;52.086;5.090;2024-02-16T12:15:38;11.30;99.90
22940;DHT22;11636;52.086;5.090;2024-02-16T12:18:22;11.30;99.90
22940;DHT22;11636;52.086;5.090;2024-02-16T12:21:08;11.40;99.90
22940;DHT22;11636;52.086;5.090;2024-02-16T12:23:44;11.40;99.90
22940;DHT22;11636;52.086;5.090;2024-02-16T12:26:10;11.40;99.90
22940;DHT22;11636;52.086;5.090;2024-02-16T12:28:51;11.30;99.90
22940;DHT22;11636;52.086;5.090;2024-02-16T12:31:24;11.40;99.90
22940;DHT22;11636;52.086;5.090;2024-02-16T12:33:52;11.50;99.90
22940;DHT22;11636;52.086;5.090;2024-02-16T12:36:26;11.60;99.90
22940;DHT22;11636;52.086;5.090;2024-02-16T12:39:00;11.60;99.90
22940;DHT22;11636;52.086;5.090;2024-02-16T12:41:27;11.70;99.90
22940;DHT22;11636;52.086;5.090;2024-02-16T12:44:02;11.60;99.90
22940;DHT22;11636;52.086;5.090;2024-02-16T12:46:28;11.60;99.90
22940;DHT22;11636;52.086;5.090;2024-02-16T12:49:02;11.70;99.90
22940;DHT22;11636;52.086;5.090;2024-02-16T12:51:29;11.70;99.90
22940;DHT22;11636;52.086;5.090;2024-02-16T12:54:03;11.80;99.90
22940;DHT22;11636;52.086;5.090;2024-02-16T12:56:39;11.80;99.90
22940;DHT22;11636;52.086;5.090;2024-02-16T12:59:06;11.80;99.90
22940;DHT22;11636;52.086;5.090;2024-02-16T13:01:33;11.80;99.90
22940;DHT22;11636;52.086;5.090;2024-02-16T13:04:07;11.90;99.90
22940;DHT22;11636;52.086;5.090;2024-02-16T13:06:34;12.00;99.90
22940;DHT22;11636;52.086;5.090;2024-02-16T13:09:07;12.10;99.90
22940;DHT22;11636;52.086;5.090;2024-02-16T13:11:41;12.10;99.90
22940;DHT22;11636;52.086;5.090;2024-02-16T13:14:14;12.10;99.90
22940;DHT22;11636;52.086;5.090;2024-02-16T13:16:40;12.10;99.90
22940;DHT22;11636;52.086;5.090;2024-02-16T13:19:14;12.00;99.90
22940;DHT22;11636;52.086;5.090;2024-02-16T13:21:47;11.90;99.90
22940;DHT22;11636;52.086;5.090;2024-02-16T13:24:14;11.80;99.90
22940;DHT22;11636;52.086;5.090;2024-02-16T13:26:48;11.80;99.90
22940;DHT22;11636;52.086;5.090;2024-02-16T13:29:15;11.80;99.90
22940;DHT22;11636;52.086;5.090;2024-02-16T13:31:49;11.70;99.90
22940;DHT22;11636;52.086;5.090;2024-02-16T13:34:16;11.70;99.90
22940;DHT22;11636;52.086;5.090;2024-02-16T13:36:50;11.60;99.90
22940;DHT22;11636;52.086;5.090;2024-02-16T13:39:18;11.60;99.90
22940;DHT22;11636;52.086;5.090;2024-02-16T13:41:46;11.60;99.90
22940;DHT22;11636;52.086;5.090;2024-02-16T13:44:21;11.60;99.90
22940;DHT22;11636;52.086;5.090;2024-02-16T13:46:48;11.60;99.90
22940;DHT22;11636;52.086;5.090;2024-02-16T13:49:15;11.50;99.90
22940;DHT22;11636;52.086;5.090;2024-02-16T13:51:48;11.60;99.90
22940;DHT22;11636;52.086;5.090;2024-02-16T13:54:15;11.70;99.90
22940;DHT22;11636;52.086;5.090;2024-02-16T13:56:49;11.70;99.90
22940;DHT22;11636;52.086;5.090;2024-02-16T13:59:16;11.70;99.90
22940;DHT22;11636;52.086;5.090;2024-02-16T14:01:49;11.70;99.90
22940;DHT22;11636;52.086;5.090;2024-02-16T14:04:23;11.70;99.90
22940;DHT22;11636;52.086;5.090;2024-02-16T14:06:51;11.70;99.90
22940;DHT22;11636;52.086;5.090;2024-02-16T14:09:24;11.70;99.90
22940;DHT22;11636;52.086;5.090;2024-02-16T14:11:59;11.80;99.90
22940;DHT22;11636;52.086;5.090;2024-02-16T14:14:33;11.90;99.90
22940;DHT22;11636;52.086;5.090;2024-02-16T14:17:04;11.90;99.90
22940;DHT22;11636;52.086;5.090;2024-02-16T14:19:31;12.00;99.90
22940;DHT22;11636;52.086;5.090;2024-02-16T14:22:07;12.00;99.90
22940;DHT22;11636;52.086;5.090;2024-02-16T14:24:41;12.00;99.90
22940;DHT22;11636;52.086;5.090;2024-02-16T14:27:08;12.10;99.90
22940;DHT22;11636;52.086;5.090;2024-02-16T14:29:35;12.10;99.90
22940;DHT22;11636;52.086;5.090;2024-02-16T14:32:08;12.10;99.90
22940;DHT22;11636;52.086;5.090;2024-02-16T14:34:41;12.10;99.90
22940;DHT22;11636;52.086;5.090;2024-02-16T14:37:10;12.20;99.90
22940;DHT22;11636;52.086;5.090;2024-02-16T14:39:44;12.20;99.90
22940;DHT22;11636;52.086;5.090;2024-02-16T14:42:17;12.20;99.90
22940;DHT22;11636;52.086;5.090;2024-02-16T14:44:44;12.20;99.90
22940;DHT22;11636;52.086;5.090;2024-02-16T14:47:20;12.20;99.90
22940;DHT22;11636;52.086;5.090;2024-02-16T14:49:49;12.20;99.90
22940;DHT22;11636;52.086;5.090;2024-02-16T14:52:15;12.10;99.90
22940;DHT22;11636;52.086;5.090;2024-02-16T14:54:49;12.10;99.90
22940;DHT22;11636;52.086;5.090;2024-02-16T14:57:16;12.10;99.90
22940;DHT22;11636;52.086;5.090;2024-02-16T14:59:53;12.10;99.90
22940;DHT22;11636;52.086;5.090;2024-02-16T15:02:22;12.10;99.90
22940;DHT22;11636;52.086;5.090;2024-02-16T15:04:50;12.10;99.90
22940;DHT22;11636;52.086;5.090;2024-02-16T15:07:25;12.10;99.90
22940;DHT22;11636;52.086;5.090;2024-02-16T15:09:59;12.10;99.90
22940;DHT22;11636;52.086;5.090;2024-02-16T15:12:26;12.20;99.90
22940;DHT22;11636;52.086;5.090;2024-02-16T15:15:00;12.10;99.90
22940;DHT22;11636;52.086;5.090;2024-02-16T15:17:27;12.20;99.90
22940;DHT22;11636;52.086;5.090;2024-02-16T15:19:54;12.20;99.90
22940;DHT22;11636;52.086;5.090;2024-02-16T15:22:27;12.10;99.90
22940;DHT22;11636;52.086;5.090;2024-02-16T15:25:08;12.20;99.90
22940;DHT22;11636;52.086;5.090;2024-02-16T15:27:41;12.20;99.90
22940;DHT22;11636;52.086;5.090;2024-02-16T15:30:08;12.20;99.90
22940;DHT22;11636;52.086;5.090;2024-02-16T15:32:35;12.20;99.90
22940;DHT22;11636;52.086;5.090;2024-02-16T15:35:09;12.20;99.90
22940;DHT22;11636;52.086;5.090;2024-02-16T15:37:42;12.20;99.90
22940;DHT22;11636;52.086;5.090;2024-02-16T15:40:16;12.30;99.90
22940;DHT22;11636;52.086;5.090;2024-02-16T15:43:00;12.20;99.90
22940;DHT22;11636;52.086;5.090;2024-02-16T15:45:28;12.20;99.90
22940;DHT22;11636;52.086;5.090;2024-02-16T15:48:01;12.30;99.90
22940;DHT22;11636;52.086;5.090;2024-02-16T15:50:28;12.30;99.90
22940;DHT22;11636;52.086;5.090;2024-02-16T15:53:03;12.30;99.90